Terminal Aerodrome Forecast
Issued by NWS

Home | Current Version | Previous Version | Text Only | Print | Product List | Glossary On
Versions: 1 2 3 4 5 6 7 8 9 10 11 12 13 14 15 16 17 18 19 20 21 22 23 24 25 26 27 28 29
000
FTUS42 KCAE 310216 AAA
TAFCUB
TAF AMD
KCUB 310216Z 3102/3124 VRB03KT P6SM SCT040 BKN080
     FM310900 VRB03KT 5SM BR SCT007 BKN015
     FM311300 35005KT P6SM SCT015 BKN040
     FM311800 01007KT P6SM SCT050 BKN150=

USA.gov is the U.S. government's official web portal to all federal, state and local government web resources and services.